Time,TemperatureF,DewpointF,PressureIn,WindDirection,WindDirectionDegrees,WindSpeedMPH,WindSpeedGustMPH,Humidity,HourlyPrecipIn,Conditions,Clouds,dailyrainin,SoftwareType,DateUTC
2018-04-23 00:10:00,35.1,30.0,30.41,SE,126,0.0,-999.0,80,-99.99,,,0.00,weatherlink.com 1.10,2018-04-23 04:10:00,
2018-04-23 00:27:00,34.7,29.0,30.41,SE,126,0.0,-999.0,81,-99.99,,,0.00,weatherlink.com 1.10,2018-04-23 04:27:00,
2018-04-23 00:40:00,34.1,29.0,30.41,SE,126,0.0,-999.0,82,-99.99,,,0.00,weatherlink.com 1.10,2018-04-23 04:40:00,
2018-04-23 00:55:00,33.4,29.0,30.42,SE,126,1.0,-999.0,82,-99.99,,,0.00,weatherlink.com 1.10,2018-04-23 04:55:00,
2018-04-23 01:10:00,33.1,29.0,30.42,SE,126,0.0,-999.0,86,-99.99,,,0.00,weatherlink.com 1.10,2018-04-23 05:10:00,
2018-04-23 01:27:00,32.7,29.0,30.42,SE,126,0.0,-999.0,86,-99.99,,,0.00,weatherlink.com 1.10,2018-04-23 05:27:00,
2018-04-23 01:40:00,32.5,29.0,30.43,SE,126,0.0,-999.0,87,-99.99,,,0.00,weatherlink.com 1.10,2018-04-23 05:40:00,
2018-04-23 01:55:00,32.0,29.0,30.43,SE,126,0.0,-999.0,88,-99.99,,,0.00,weatherlink.com 1.10,2018-04-23 05:55:00,
2018-04-23 02:10:00,31.5,28.0,30.43,SE,126,0.0,-999.0,88,-99.99,,,0.00,weatherlink.com 1.10,2018-04-23 06:10:00,
2018-04-23 02:27:00,31.3,28.0,30.43,SE,126,0.0,-999.0,88,-99.99,,,0.00,weatherlink.com 1.10,2018-04-23 06:27:00,
2018-04-23 02:40:00,30.5,27.0,30.43,SE,126,0.0,-999.0,88,-99.99,,,0.00,weatherlink.com 1.10,2018-04-23 06:40:00,
2018-04-23 02:55:00,30.1,28.0,30.43,SE,126,0.0,-999.0,90,-99.99,,,0.00,weatherlink.com 1.10,2018-04-23 06:55:00,
2018-04-23 03:10:00,29.7,27.0,30.44,SE,126,0.0,-999.0,90,-99.99,,,0.00,weatherlink.com 1.10,2018-04-23 07:10:00,
2018-04-23 03:27:00,29.4,27.0,30.45,SE,126,0.0,-999.0,91,-99.99,,,0.00,weatherlink.com 1.10,2018-04-23 07:27:00,
2018-04-23 03:40:00,29.4,27.0,30.45,SE,126,0.0,-999.0,91,-99.99,,,0.00,weatherlink.com 1.10,2018-04-23 07:40:00,
2018-04-23 03:55:00,29.0,27.0,30.45,SE,126,0.0,-999.0,91,-99.99,,,0.00,weatherlink.com 1.10,2018-04-23 07:55:00,
2018-04-23 04:10:00,28.9,27.0,30.45,SE,126,0.0,-999.0,92,-99.99,,,0.00,weatherlink.com 1.10,2018-04-23 08:10:00,
2018-04-23 04:27:00,28.9,27.0,30.46,SE,126,0.0,-999.0,92,-99.99,,,0.00,weatherlink.com 1.10,2018-04-23 08:27:00,
2018-04-23 04:40:00,28.6,27.0,30.46,SE,126,0.0,-999.0,92,-99.99,,,0.00,weatherlink.com 1.10,2018-04-23 08:40:00,
2018-04-23 04:55:00,28.4,27.0,30.46,SE,126,0.0,-999.0,93,-99.99,,,0.00,weatherlink.com 1.10,2018-04-23 08:55:00,
2018-04-23 05:10:00,28.5,27.0,30.46,SE,126,0.0,-999.0,92,-99.99,,,0.00,weatherlink.com 1.10,2018-04-23 09:10:00,
2018-04-23 05:27:00,28.7,27.0,30.47,SE,126,0.0,-999.0,93,-99.99,,,0.00,weatherlink.com 1.10,2018-04-23 09:27:00,
2018-04-23 05:40:00,28.2,26.0,30.47,SE,126,0.0,-999.0,92,-99.99,,,0.00,weatherlink.com 1.10,2018-04-23 09:40:00,
2018-04-23 05:55:00,27.8,26.0,30.48,SE,126,0.0,-999.0,93,-99.99,,,0.00,weatherlink.com 1.10,2018-04-23 09:55:00,
2018-04-23 06:10:00,28.0,26.0,30.49,SE,126,0.0,-999.0,93,-99.99,,,0.00,weatherlink.com 1.10,2018-04-23 10:10:00,
2018-04-23 06:27:00,29.2,28.0,30.49,SE,126,0.0,-999.0,94,-99.99,,,0.00,weatherlink.com 1.10,2018-04-23 10:27:00,
2018-04-23 06:40:00,33.0,30.0,30.50,SE,126,0.0,-999.0,89,-99.99,,,0.00,weatherlink.com 1.10,2018-04-23 10:40:00,
2018-04-23 06:55:00,35.3,31.0,30.51,SE,126,0.0,-999.0,85,-99.99,,,0.00,weatherlink.com 1.10,2018-04-23 10:55:00,
2018-04-23 07:10:00,37.7,32.0,30.51,SE,126,0.0,-999.0,80,-99.99,,,0.00,weatherlink.com 1.10,2018-04-23 11:10:00,
2018-04-23 07:33:00,38.4,34.0,30.51,SE,126,0.0,-999.0,83,-99.99,,,0.00,weatherlink.com 1.10,2018-04-23 11:33:00,
2018-04-23 07:40:00,42.4,33.0,30.52,North,5,1.0,-999.0,69,-99.99,,,0.00,weatherlink.com 1.10,2018-04-23 11:40:00,
2018-04-23 07:55:00,44.5,34.0,30.52,NNW,336,0.0,-999.0,66,-99.99,,,0.00,weatherlink.com 1.10,2018-04-23 11:55:00,
2018-04-23 08:10:00,47.2,33.0,30.52,NNW,348,0.0,-999.0,58,-99.99,,,0.00,weatherlink.com 1.10,2018-04-23 12:10:00,
2018-04-23 08:27:00,49.7,31.0,30.52,North,355,2.0,-999.0,49,-99.99,,,0.00,weatherlink.com 1.10,2018-04-23 12:27:00,
2018-04-23 08:40:00,53.9,30.0,30.52,ENE,66,1.0,-999.0,41,-99.99,,,0.00,weatherlink.com 1.10,2018-04-23 12:40:00,
2018-04-23 08:55:00,55.5,31.0,30.52,ENE,66,5.0,-999.0,39,-99.99,,,0.00,weatherlink.com 1.10,2018-04-23 12:55:00,
2018-04-23 09:11:00,56.6,30.0,30.52,NE,49,1.0,-999.0,37,-99.99,,,0.00,weatherlink.com 1.10,2018-04-23 13:11:00,
2018-04-23 09:28:00,58.1,30.0,30.53,NW,325,1.0,-999.0,35,-99.99,,,0.00,weatherlink.com 1.10,2018-04-23 13:28:00,
2018-04-23 09:41:00,58.5,27.0,30.53,East,97,4.0,-999.0,30,-99.99,,,0.00,weatherlink.com 1.10,2018-04-23 13:41:00,
2018-04-23 09:56:00,59.2,26.0,30.54,East,92,4.0,-999.0,28,-99.99,,,0.00,weatherlink.com 1.10,2018-04-23 13:56:00,
2018-04-23 10:11:00,59.4,23.0,30.53,ENE,57,5.0,-999.0,25,-99.99,,,0.00,weatherlink.com 1.10,2018-04-23 14:11:00,
2018-04-23 10:28:00,59.7,26.0,30.52,ENE,69,1.0,-999.0,28,-99.99,,,0.00,weatherlink.com 1.10,2018-04-23 14:28:00,
2018-04-23 10:41:00,61.0,24.0,30.52,ENE,76,2.0,-999.0,24,-99.99,,,0.00,weatherlink.com 1.10,2018-04-23 14:41:00,
2018-04-23 10:56:00,61.9,22.0,30.52,WNW,284,2.0,-999.0,22,-99.99,,,0.00,weatherlink.com 1.10,2018-04-23 14:56:00,
2018-04-23 11:11:00,62.2,25.0,30.52,NNW,328,2.0,-999.0,24,-99.99,,,0.00,weatherlink.com 1.10,2018-04-23 15:11:00,
2018-04-23 11:28:00,63.2,24.0,30.52,NNW,346,6.0,-999.0,22,-99.99,,,0.00,weatherlink.com 1.10,2018-04-23 15:28:00,
2018-04-23 11:41:00,63.0,22.0,30.52,WNW,288,1.0,-999.0,21,-99.99,,,0.00,weatherlink.com 1.10,2018-04-23 15:41:00,
2018-04-23 11:56:00,63.4,22.0,30.51,North,9,1.0,-999.0,20,-99.99,,,0.00,weatherlink.com 1.10,2018-04-23 15:56:00,
2018-04-23 12:11:00,62.8,22.0,30.51,WNW,300,1.0,-999.0,21,-99.99,,,0.00,weatherlink.com 1.10,2018-04-23 16:11:00,
2018-04-23 12:28:00,64.2,23.0,30.51,NE,49,6.0,-999.0,21,-99.99,,,0.00,weatherlink.com 1.10,2018-04-23 16:28:00,
2018-04-23 12:41:00,64.7,17.0,30.51,ENE,72,6.0,-999.0,16,-99.99,,,0.00,weatherlink.com 1.10,2018-04-23 16:41:00,